Latest Coastal Weather Observations for Lucinda

IDQ60701

Issued at 9:02 am EST Sunday 24 July 2016 (issued every 10 minutes, with the page automatically refreshed every 10 minutes)

About coastal observations | Map of coastal stations | Coastal observations for QLD | Marine services | Other Formats
Station Details ID: 032141 Name: LUCINDA POINT Lat: -18.52 Lon: 146.39 Height: 10.0 m
Data from the previous 72 hours. | See also: Recent months at Lucinda
Date/Time
EST
Temp
°C
Wind Pressure Rain since
9am
mm
Weather Cloud Vis
km
Sea
Height
m
Swell
Dir  Spd
kts
Gust
kts
hPa Trend Height
m
Period
s
Dir
24/09:00am 20.3 SW 7 9 1016.4 - 0.0 - - - - - - -
24/08:30am 19.9 SW 6 7 1016.2 - 0.0 - - - - - - -
24/08:00am 19.8 SW 8 9 1016.1 - 0.0 - - - - - - -
24/07:30am 20.0 SW 6 7 1015.7 - 0.0 - - - - - - -
24/07:00am 19.9 SW 7 8 1015.4 - 0.0 - - - - - - -
24/06:30am 19.8 SW 7 8 1015.0 - 0.0 - - - - - - -
24/06:00am 20.0 WSW 8 9 1014.7 - 0.0 - - - - - - -
24/05:30am 20.3 SW 10 11 1014.4 - 0.0 - - - - - - -
24/05:00am 20.6 SW 10 11 1014.3 - 0.0 - - - - - - -
24/04:30am 20.7 SW 9 10 1014.0 - 0.0 - - - - - - -
24/04:00am 20.4 SW 8 9 1013.9 - 0.0 - - - - - - -
24/03:30am 20.7 SW 7 8 1013.8 - 0.0 - - - - - - -
24/03:00am 20.9 SW 8 9 1013.8 - 0.0 - - - - - - -
24/02:30am 20.7 WSW 8 9 1013.8 - 0.0 - - - - - - -
24/02:00am 20.7 SW 9 9 1013.9 - 0.0 - - - - - - -
24/01:30am 20.7 SW 8 9 1014.2 - 0.0 - - - - - - -
24/01:00am 20.6 WSW 8 8 1014.2 - 0.0 - - - - - - -
24/12:30am 21.2 WSW 7 8 1014.3 - 0.0 - - - - - - -
24/12:00am 22.1 NW 3 6 1014.3 - 0.0 - - - - - - -
 
Date/Time
EST
Temp
°C
Wind Pressure Rain since
9am
mm
Weather Cloud Vis
km
Sea
Height
m
Swell
Dir  Spd
kts
Gust
kts
hPa Trend Height
m
Period
s
Dir
23/11:30pm 22.5 N 4 5 1014.3 - 0.0 - - - - - - -
23/11:00pm 22.5 NNW 5 6 1014.2 - 0.0 - - - - - - -
23/10:30pm 22.4 NNW 5 7 1014.3 - 0.0 - - - - - - -
23/10:00pm 22.9 NNE 5 6 1014.2 - 0.0 - - - - - - -
23/09:30pm 23.0 NE 6 7 1014.2 - 0.0 - - - - - - -
23/09:00pm 23.0 E 5 6 1014.1 - 0.0 - - - - - - -
23/08:30pm 23.0 E 6 7 1013.9 - 0.0 - - - - - - -
23/08:00pm 23.0 ENE 7 9 1013.5 - 0.0 - - - - - - -
23/07:30pm 23.0 ENE 7 9 1013.2 - 0.0 - - - - - - -
23/07:00pm 23.0 ENE 7 9 1012.8 - 0.0 - - - - - - -
23/06:30pm 23.0 E 8 10 1012.6 - 0.0 - - - - - - -
23/06:00pm 23.1 ESE 8 9 1012.5 - 0.0 - - - - - - -
23/05:30pm 23.3 ESE 8 11 1012.4 - 0.0 - - - - - - -
23/05:00pm 23.5 ENE 8 9 1012.4 - 0.0 - - - - - - -
23/04:30pm 23.6 E 9 11 1012.3 - 0.0 - - - - - - -
23/04:00pm 24.0 ENE 6 7 1012.3 - 0.0 - - - - - - -
23/03:30pm 24.0 E 6 8 1012.3 - 0.0 - - - - - - -
23/03:00pm 23.9 E 7 8 1012.4 - 0.0 - - - - - - -
23/02:30pm 24.7 ESE 5 7 1012.7 - 0.0 - - - - - - -
23/02:00pm 24.1 SSE 5 8 1013.0 - 0.0 - - - - - - -
23/01:30pm 23.4 SSE 5 6 1013.4 - 0.0 - - - - - - -
23/01:00pm 23.8 SSE 5 8 1013.6 - 0.0 - - - - - - -
23/12:30pm 23.3 S 4 6 1014.1 - 0.0 - - - - - - -
23/12:00pm 23.1 S 6 8 1014.5 - 0.0 - - - - - - -
23/11:30am 22.8 S 9 11 1014.8 - 0.0 - - - - - - -
23/11:00am 22.8 S 9 10 1015.3 - 0.0 - - - - - - -
23/10:30am 22.3 SSW 7 8 1015.7 - 0.0 - - - - - - -
23/10:00am 21.9 SW 6 7 1015.8 - 0.0 - - - - - - -
23/09:30am 21.5 SW 9 11 1015.9 - 0.0 - - - - - - -
23/09:00am 20.8 SW 9 10 1016.0 - 0.2 - - - - - - -
23/08:30am 20.2 SW 9 10 1015.7 - 0.2 - - - - - - -
23/08:00am 20.4 SW 8 9 1015.5 - 0.2 - - - - - - -
23/07:30am 20.2 SW 8 9 1015.2 - 0.2 - - - - - - -
23/07:00am 20.3 SW 7 8 1014.9 - 0.2 - - - - - - -
23/06:30am 20.6 SW 7 8 1014.5 - 0.2 - - - - - - -
23/06:00am 20.6 WSW 7 9 1014.1 - 0.2 - - - - - - -
23/05:30am 20.5 WSW 8 9 1013.7 - 0.2 - - - - - - -
23/05:00am 20.6 W 8 9 1013.6 - 0.2 - - - - - - -
23/04:30am 20.6 WSW 8 9 1013.6 - 0.2 - - - - - - -
23/04:00am 21.1 WSW 8 9 1013.6 - 0.2 - - - - - - -
23/03:30am 21.3 WSW 8 9 1013.6 - 0.2 - - - - - - -
23/03:00am 21.3 SW 7 9 1013.8 - 0.2 - - - - - - -
23/02:30am 21.0 WSW 7 8 1013.8 - 0.2 - - - - - - -
23/02:00am 20.6 WSW 8 10 1014.0 - 0.2 - - - - - - -
23/01:30am 20.8 SW 9 10 1014.2 - 0.2 - - - - - - -
23/01:00am 20.8 SW 9 11 1014.3 - 0.2 - - - - - - -
23/12:30am 20.9 SW 10 11 1014.4 - 0.2 - - - - - - -
23/12:00am 21.1 SW 8 9 1014.4 - 0.2 - - - - - - -
 
Date/Time
EST
Temp
°C
Wind Pressure Rain since
9am
mm
Weather Cloud Vis
km
Sea
Height
m
Swell
Dir  Spd
kts
Gust
kts
hPa Trend Height
m
Period
s
Dir
22/11:30pm 21.5 SW 7 8 1014.6 - 0.2 - - - - - - -
22/11:00pm 21.5 SW 7 8 1014.7 - 0.2 - - - - - - -
22/10:30pm 23.0 S 4 4 1014.8 - 0.2 - - - - - - -
22/10:00pm 22.9 ESE 4 6 1014.6 - 0.2 - - - - - - -
22/09:30pm 23.0 ESE 5 6 1014.5 - 0.2 - - - - - - -
22/09:00pm 22.9 ESE 6 7 1014.6 - 0.2 - - - - - - -
22/08:30pm 22.9 ESE 8 11 1014.7 - 0.2 - - - - - - -
22/08:00pm 22.9 ESE 10 12 1014.6 - 0.2 - - - - - - -
22/07:30pm 22.8 ESE 10 13 1014.4 - 0.2 - - - - - - -
22/07:00pm 22.9 ESE 9 12 1014.2 - 0.2 - - - - - - -
22/06:30pm 23.1 ESE 8 11 1013.9 - 0.2 - - - - - - -
22/06:00pm 23.2 ESE 8 10 1013.8 - 0.2 - - - - - - -
22/05:30pm 23.3 E 7 9 1013.9 - 0.2 - - - - - - -
22/05:00pm 23.7 ESE 5 7 1013.8 - 0.2 - - - - - - -
22/04:30pm 24.3 SE 5 6 1013.6 - 0.2 - - - - - - -
22/04:00pm 24.2 S 3 4 1013.6 - 0.2 - - - - - - -
22/03:30pm 23.3 S 6 8 1013.7 - 0.2 - - - - - - -
22/03:00pm 23.3 S 6 8 1013.9 - 0.2 - - - - - - -
22/02:30pm 23.2 S 7 9 1014.1 - 0.2 - - - - - - -
22/02:00pm 23.4 S 6 8 1014.4 - 0.2 - - - - - - -
22/01:30pm 23.3 S 5 7 1014.9 - 0.2 - - - - - - -
22/01:00pm 23.0 S 8 9 1015.2 - 0.2 - - - - - - -
22/12:30pm 23.0 S 9 10 1015.6 - 0.2 - - - - - - -
22/12:00pm 22.9 S 10 13 1016.0 - 0.2 Rain - - - - - -
22/11:30am 23.0 S 10 12 1016.4 - 0.0 - - - - - - -
22/11:00am 22.9 S 9 11 1016.6 - 0.0 - - - - - - -
22/10:30am 22.6 S 11 13 1016.9 - 0.0 - - - - - - -
22/10:00am 22.7 S 9 11 1017.1 - 0.0 - - - - - - -
22/09:30am 22.7 S 9 10 1017.1 - 0.0 - - - - - - -
22/09:00am 22.7 S 10 12 1016.8 - 0.2 - - - - - - -
22/08:30am 22.7 S 10 11 1016.6 - 0.2 - - - - - - -
22/08:00am 22.5 S 7 9 1016.4 - 0.2 - - - - - - -
22/07:30am 22.3 S 10 11 1016.1 - 0.2 - - - - - - -
22/07:00am 22.3 S 9 10 1016.0 - 0.2 - - - - - - -
22/06:30am 22.2 S 8 10 1015.6 - 0.2 - - - - - - -
22/06:00am 22.3 S 9 10 1015.6 - 0.2 - - - - - - -
22/05:30am 22.3 S 7 8 1015.3 - 0.2 - - - - - - -
22/05:00am 22.3 S 8 9 1015.1 - 0.2 - - - - - - -
22/04:30am 22.3 S 8 9 1015.1 - 0.2 - - - - - - -
22/04:00am 22.3 S 8 9 1015.1 - 0.2 - - - - - - -
22/03:30am 22.5 S 8 9 1015.2 - 0.2 - - - - - - -
22/03:00am 22.4 S 8 9 1015.5 - 0.2 - - - - - - -
22/02:30am 22.4 S 8 9 1015.6 - 0.2 - - - - - - -
22/02:00am 22.6 S 8 9 1015.8 - 0.2 - - - - - - -
22/01:30am 22.7 S 8 9 1016.1 - 0.2 - - - - - - -
22/01:00am 22.7 S 7 8 1016.5 - 0.2 - - - - - - -
22/12:30am 22.7 S 6 7 1016.6 - 0.2 - - - - - - -
22/12:00am 22.5 SW 5 6 1016.6 - 0.2 - - - - - - -
 
Date/Time
EST
Temp
°C
Wind Pressure Rain since
9am
mm
Weather Cloud Vis
km
Sea
Height
m
Swell
Dir  Spd
kts
Gust
kts
hPa Trend Height
m
Period
s
Dir
21/11:30pm 22.4 SW 6 7 1016.7 - 0.2 - - - - - - -
21/11:00pm 22.5 SW 6 6 1016.9 - 0.2 - - - - - - -
21/10:30pm 23.0 SSW 6 7 1017.0 - 0.2 - - - - - - -
21/10:00pm 23.1 SSE 6 7 1017.1 - 0.2 - - - - - - -
21/09:30pm 23.1 S 4 6 1017.1 - 0.2 - - - - - - -
21/09:00pm 23.1 SSE 4 5 1016.9 - 0.2 - - - - - - -
21/08:30pm 23.2 SSE 4 6 1016.6 - 0.2 - - - - - - -
21/08:00pm 23.2 SSE 4 8 1016.3 - 0.2 - - - - - - -
21/07:30pm 23.3 ESE 8 13 1016.0 - 0.2 - - - - - - -
21/07:00pm 23.2 SE 9 13 1015.7 - 0.2 - - - - - - -
21/06:30pm 23.2 SE 8 13 1015.4 - 0.2 - - - - - - -
21/06:00pm 23.1 SE 7 10 1015.3 - 0.2 - - - - - - -
21/05:30pm 23.3 SE 9 13 1015.1 - 0.2 - - - - - - -
21/05:00pm 23.2 SE 8 13 1014.9 - 0.2 - - - - - - -
21/04:30pm 23.2 SE 9 13 1014.7 - 0.2 - - - - - - -
21/04:00pm 23.2 SE 9 15 1014.7 - 0.2 - - - - - - -
21/03:30pm 23.5 SE 10 14 1014.6 - 0.2 - - - - - - -
21/03:00pm 22.8 SE 4 7 1014.8 - 0.2 - - - - - - -
21/02:30pm 22.5 S 10 13 1014.9 - 0.2 - - - - - - -
21/02:00pm 21.8 SSE 7 11 1015.2 - 0.2 - - - - - - -
21/01:30pm 22.1 S 11 13 1015.6 - 0.0 - - - - - - -
21/01:00pm 22.0 S 9 12 1016.0 - 0.0 - - - - - - -
21/12:30pm 22.0 S 13 16 1016.4 - 0.0 - - - - - - -
21/12:00pm 21.8 S 15 18 1016.8 - 0.0 - - - - - - -
21/11:30am 21.7 S 16 19 1017.0 - 0.0 - - - - - - -
21/11:00am 22.0 S 15 17 1017.2 - 0.0 - - - - - - -
21/10:30am 22.0 S 15 17 1017.3 - 0.0 - - - - - - -
21/10:00am 22.0 S 14 17 1017.5 - 0.0 - - - - - - -
21/09:30am 22.2 S 13 16 1017.4 - 0.0 - - - - - - -

Other Formats:

Comma delimited format used in spreadsheet applications
http://www.bom.gov.au/fwo/IDQ60701/IDQ60701.94295.axf

JavaScript Object Notation format (JSON) in row-major order
http://www.bom.gov.au/fwo/IDQ60701/IDQ60701.94295.json